sensor_id;sensor_type;location;lat;lon;timestamp;temperature;humidity
12833;DHT22;6483;51.310;4.462;2023-04-16T00:01:51;8.70;88.20
12833;DHT22;6483;51.310;4.462;2023-04-16T00:04:17;8.80;83.00
12833;DHT22;6483;51.310;4.462;2023-04-16T00:06:45;8.80;74.10
12833;DHT22;6483;51.310;4.462;2023-04-16T00:09:11;8.70;89.30
12833;DHT22;6483;51.310;4.462;2023-04-16T00:11:37;8.70;92.00
12833;DHT22;6483;51.310;4.462;2023-04-16T00:14:04;8.70;99.40
12833;DHT22;6483;51.310;4.462;2023-04-16T00:16:30;8.80;91.80
12833;DHT22;6483;51.310;4.462;2023-04-16T00:18:55;9.40;95.20
12833;DHT22;6483;51.310;4.462;2023-04-16T00:21:21;8.70;82.60
12833;DHT22;6483;51.310;4.462;2023-04-16T00:23:50;8.70;96.90
12833;DHT22;6483;51.310;4.462;2023-04-16T00:26:15;8.80;99.90
12833;DHT22;6483;51.310;4.462;2023-04-16T00:28:41;8.80;89.00
12833;DHT22;6483;51.310;4.462;2023-04-16T00:31:07;8.80;81.60
12833;DHT22;6483;51.310;4.462;2023-04-16T00:33:32;8.70;90.10
12833;DHT22;6483;51.310;4.462;2023-04-16T00:35:58;8.70;88.30
12833;DHT22;6483;51.310;4.462;2023-04-16T00:38:27;8.70;98.70
12833;DHT22;6483;51.310;4.462;2023-04-16T00:40:55;8.80;99.90
12833;DHT22;6483;51.310;4.462;2023-04-16T00:43:24;8.80;98.40
12833;DHT22;6483;51.310;4.462;2023-04-16T00:45:52;8.80;96.50
12833;DHT22;6483;51.310;4.462;2023-04-16T00:48:20;8.90;81.70
12833;DHT22;6483;51.310;4.462;2023-04-16T00:50:47;8.80;80.50
12833;DHT22;6483;51.310;4.462;2023-04-16T00:53:14;8.80;73.20
12833;DHT22;6483;51.310;4.462;2023-04-16T00:55:40;8.80;92.20
12833;DHT22;6483;51.310;4.462;2023-04-16T00:58:06;8.90;91.80
12833;DHT22;6483;51.310;4.462;2023-04-16T01:00:32;8.90;92.60
12833;DHT22;6483;51.310;4.462;2023-04-16T01:02:58;8.90;95.00
12833;DHT22;6483;51.310;4.462;2023-04-16T01:05:25;8.90;93.20
12833;DHT22;6483;51.310;4.462;2023-04-16T01:07:58;8.80;91.40
12833;DHT22;6483;51.310;4.462;2023-04-16T01:10:33;8.90;90.70
12833;DHT22;6483;51.310;4.462;2023-04-16T01:12:59;10.50;94.90
12833;DHT22;6483;51.310;4.462;2023-04-16T01:15:24;8.90;80.00
12833;DHT22;6483;51.310;4.462;2023-04-16T01:17:56;8.90;89.10
12833;DHT22;6483;51.310;4.462;2023-04-16T01:20:22;9.00;87.10
12833;DHT22;6483;51.310;4.462;2023-04-16T01:22:48;9.00;99.90
12833;DHT22;6483;51.310;4.462;2023-04-16T01:25:17;9.00;91.50
12833;DHT22;6483;51.310;4.462;2023-04-16T01:27:42;8.90;99.90
12833;DHT22;6483;51.310;4.462;2023-04-16T01:30:09;8.90;96.00
12833;DHT22;6483;51.310;4.462;2023-04-16T01:32:36;8.90;99.90
12833;DHT22;6483;51.310;4.462;2023-04-16T01:35:05;8.90;99.90
12833;DHT22;6483;51.310;4.462;2023-04-16T01:37:34;9.00;99.90
12833;DHT22;6483;51.310;4.462;2023-04-16T01:40:06;9.00;99.90
12833;DHT22;6483;51.310;4.462;2023-04-16T01:42:35;9.00;99.30
12833;DHT22;6483;51.310;4.462;2023-04-16T01:45:19;9.00;99.90
12833;DHT22;6483;51.310;4.462;2023-04-16T01:47:52;9.00;99.90
12833;DHT22;6483;51.310;4.462;2023-04-16T01:50:19;9.00;99.90
12833;DHT22;6483;51.310;4.462;2023-04-16T01:52:45;9.00;99.90
12833;DHT22;6483;51.310;4.462;2023-04-16T01:55:16;9.00;99.90
12833;DHT22;6483;51.310;4.462;2023-04-16T01:57:42;9.00;99.90
12833;DHT22;6483;51.310;4.462;2023-04-16T02:00:11;9.00;99.90
12833;DHT22;6483;51.310;4.462;2023-04-16T02:02:36;9.00;99.90
12833;DHT22;6483;51.310;4.462;2023-04-16T02:05:02;9.00;99.90
12833;DHT22;6483;51.310;4.462;2023-04-16T02:07:29;9.00;99.90
12833;DHT22;6483;51.310;4.462;2023-04-16T02:09:59;9.00;99.90
12833;DHT22;6483;51.310;4.462;2023-04-16T02:12:25;9.00;99.90
12833;DHT22;6483;51.310;4.462;2023-04-16T02:14:51;9.00;99.90
12833;DHT22;6483;51.310;4.462;2023-04-16T02:17:17;9.10;99.90
12833;DHT22;6483;51.310;4.462;2023-04-16T02:19:45;9.10;99.90
12833;DHT22;6483;51.310;4.462;2023-04-16T02:22:12;9.10;99.90
12833;DHT22;6483;51.310;4.462;2023-04-16T02:24:37;9.10;99.90
12833;DHT22;6483;51.310;4.462;2023-04-16T02:27:03;9.10;99.90
12833;DHT22;6483;51.310;4.462;2023-04-16T02:29:29;9.20;99.90
12833;DHT22;6483;51.310;4.462;2023-04-16T02:31:56;9.20;99.90
12833;DHT22;6483;51.310;4.462;2023-04-16T02:34:22;9.20;99.90
12833;DHT22;6483;51.310;4.462;2023-04-16T02:36:50;9.20;99.90
12833;DHT22;6483;51.310;4.462;2023-04-16T02:39:15;9.20;99.90
12833;DHT22;6483;51.310;4.462;2023-04-16T02:41:41;9.20;99.90
12833;DHT22;6483;51.310;4.462;2023-04-16T02:44:07;9.10;99.90
12833;DHT22;6483;51.310;4.462;2023-04-16T02:46:35;9.10;99.90
12833;DHT22;6483;51.310;4.462;2023-04-16T02:49:01;9.00;99.90
12833;DHT22;6483;51.310;4.462;2023-04-16T02:51:26;9.00;99.90
12833;DHT22;6483;51.310;4.462;2023-04-16T02:53:52;8.90;99.90
12833;DHT22;6483;51.310;4.462;2023-04-16T02:56:20;8.80;99.90
12833;DHT22;6483;51.310;4.462;2023-04-16T02:58:46;8.80;99.90
12833;DHT22;6483;51.310;4.462;2023-04-16T03:01:12;8.60;99.90
12833;DHT22;6483;51.310;4.462;2023-04-16T03:03:38;8.60;99.90
12833;DHT22;6483;51.310;4.462;2023-04-16T03:06:03;8.50;99.90
12833;DHT22;6483;51.310;4.462;2023-04-16T03:08:29;8.60;99.90
12833;DHT22;6483;51.310;4.462;2023-04-16T03:10:55;8.60;99.90
12833;DHT22;6483;51.310;4.462;2023-04-16T03:13:20;8.50;99.90
12833;DHT22;6483;51.310;4.462;2023-04-16T03:15:49;8.60;99.90
12833;DHT22;6483;51.310;4.462;2023-04-16T03:18:15;8.60;99.90
12833;DHT22;6483;51.310;4.462;2023-04-16T03:20:40;8.60;99.90
12833;DHT22;6483;51.310;4.462;2023-04-16T03:23:06;8.50;99.90
12833;DHT22;6483;51.310;4.462;2023-04-16T03:25:32;8.60;99.90
12833;DHT22;6483;51.310;4.462;2023-04-16T03:27:57;8.60;99.90
12833;DHT22;6483;51.310;4.462;2023-04-16T03:30:23;8.60;99.90
12833;DHT22;6483;51.310;4.462;2023-04-16T03:32:49;8.70;99.90
12833;DHT22;6483;51.310;4.462;2023-04-16T03:35:16;8.60;99.90
12833;DHT22;6483;51.310;4.462;2023-04-16T03:37:42;8.60;99.90
12833;DHT22;6483;51.310;4.462;2023-04-16T03:40:07;8.70;99.90
12833;DHT22;6483;51.310;4.462;2023-04-16T03:42:33;8.60;99.90
12833;DHT22;6483;51.310;4.462;2023-04-16T03:44:59;8.70;99.90
12833;DHT22;6483;51.310;4.462;2023-04-16T03:47:25;8.70;99.90
12833;DHT22;6483;51.310;4.462;2023-04-16T03:49:51;8.60;99.90
12833;DHT22;6483;51.310;4.462;2023-04-16T03:52:16;8.60;99.90
12833;DHT22;6483;51.310;4.462;2023-04-16T03:54:42;8.60;99.90
12833;DHT22;6483;51.310;4.462;2023-04-16T03:57:08;8.70;99.90
12833;DHT22;6483;51.310;4.462;2023-04-16T03:59:33;8.70;99.90
12833;DHT22;6483;51.310;4.462;2023-04-16T04:01:59;8.70;99.90
12833;DHT22;6483;51.310;4.462;2023-04-16T04:04:24;8.70;99.90
12833;DHT22;6483;51.310;4.462;2023-04-16T04:06:50;8.70;99.90
12833;DHT22;6483;51.310;4.462;2023-04-16T04:09:16;8.70;99.90
12833;DHT22;6483;51.310;4.462;2023-04-16T04:11:42;8.70;99.90
12833;DHT22;6483;51.310;4.462;2023-04-16T04:14:07;8.70;99.90
12833;DHT22;6483;51.310;4.462;2023-04-16T04:16:33;8.70;99.90
12833;DHT22;6483;51.310;4.462;2023-04-16T04:18:59;8.70;99.90
12833;DHT22;6483;51.310;4.462;2023-04-16T04:21:28;8.70;99.90
12833;DHT22;6483;51.310;4.462;2023-04-16T04:23:55;8.70;99.90
12833;DHT22;6483;51.310;4.462;2023-04-16T04:26:21;8.70;99.90
12833;DHT22;6483;51.310;4.462;2023-04-16T04:28:47;8.80;99.90
12833;DHT22;6483;51.310;4.462;2023-04-16T04:31:13;8.70;99.90
12833;DHT22;6483;51.310;4.462;2023-04-16T04:33:38;8.80;99.90
12833;DHT22;6483;51.310;4.462;2023-04-16T04:36:04;8.80;99.90
12833;DHT22;6483;51.310;4.462;2023-04-16T04:38:30;8.70;99.90
12833;DHT22;6483;51.310;4.462;2023-04-16T04:40:56;8.70;99.90
12833;DHT22;6483;51.310;4.462;2023-04-16T04:43:22;8.70;99.90
12833;DHT22;6483;51.310;4.462;2023-04-16T04:45:47;8.70;99.90
12833;DHT22;6483;51.310;4.462;2023-04-16T04:48:13;8.60;99.90
12833;DHT22;6483;51.310;4.462;2023-04-16T04:50:40;8.60;99.90
12833;DHT22;6483;51.310;4.462;2023-04-16T04:53:06;8.60;99.90
12833;DHT22;6483;51.310;4.462;2023-04-16T04:55:38;8.60;99.90
12833;DHT22;6483;51.310;4.462;2023-04-16T04:58:05;8.60;99.90
12833;DHT22;6483;51.310;4.462;2023-04-16T05:00:31;8.60;99.90
12833;DHT22;6483;51.310;4.462;2023-04-16T05:03:00;8.60;99.90
12833;DHT22;6483;51.310;4.462;2023-04-16T05:05:26;8.60;99.90
12833;DHT22;6483;51.310;4.462;2023-04-16T05:07:52;8.60;99.90
12833;DHT22;6483;51.310;4.462;2023-04-16T05:10:17;8.50;99.90
12833;DHT22;6483;51.310;4.462;2023-04-16T05:12:44;8.50;99.90
12833;DHT22;6483;51.310;4.462;2023-04-16T05:15:10;8.60;99.90
12833;DHT22;6483;51.310;4.462;2023-04-16T05:17:36;8.50;99.90
12833;DHT22;6483;51.310;4.462;2023-04-16T05:20:01;8.50;99.90
12833;DHT22;6483;51.310;4.462;2023-04-16T05:22:27;8.50;99.90
12833;DHT22;6483;51.310;4.462;2023-04-16T05:24:52;8.50;99.90
12833;DHT22;6483;51.310;4.462;2023-04-16T05:27:18;8.40;99.90
12833;DHT22;6483;51.310;4.462;2023-04-16T05:29:44;8.50;99.90
12833;DHT22;6483;51.310;4.462;2023-04-16T05:32:13;8.50;99.90
12833;DHT22;6483;51.310;4.462;2023-04-16T05:34:45;8.50;99.90
12833;DHT22;6483;51.310;4.462;2023-04-16T05:37:10;8.50;99.90
12833;DHT22;6483;51.310;4.462;2023-04-16T05:39:36;8.40;99.90
12833;DHT22;6483;51.310;4.462;2023-04-16T05:42:02;8.40;99.90
12833;DHT22;6483;51.310;4.462;2023-04-16T05:44:28;8.50;99.90
12833;DHT22;6483;51.310;4.462;2023-04-16T05:46:53;8.50;99.90
12833;DHT22;6483;51.310;4.462;2023-04-16T05:49:19;8.40;99.90
12833;DHT22;6483;51.310;4.462;2023-04-16T05:51:45;8.40;99.90
12833;DHT22;6483;51.310;4.462;2023-04-16T05:54:11;8.40;99.90
12833;DHT22;6483;51.310;4.462;2023-04-16T05:56:37;8.30;99.90
12833;DHT22;6483;51.310;4.462;2023-04-16T05:59:02;8.40;99.90
12833;DHT22;6483;51.310;4.462;2023-04-16T06:01:31;8.40;99.90
12833;DHT22;6483;51.310;4.462;2023-04-16T06:03:57;8.40;99.90
12833;DHT22;6483;51.310;4.462;2023-04-16T06:06:23;8.40;99.90
12833;DHT22;6483;51.310;4.462;2023-04-16T06:08:48;8.40;99.90
12833;DHT22;6483;51.310;4.462;2023-04-16T06:11:15;8.40;99.90
12833;DHT22;6483;51.310;4.462;2023-04-16T06:13:41;8.40;99.90
12833;DHT22;6483;51.310;4.462;2023-04-16T06:16:06;8.40;99.90
12833;DHT22;6483;51.310;4.462;2023-04-16T06:18:32;8.40;99.90
12833;DHT22;6483;51.310;4.462;2023-04-16T06:20:58;8.50;99.90
12833;DHT22;6483;51.310;4.462;2023-04-16T06:23:24;8.40;99.90
12833;DHT22;6483;51.310;4.462;2023-04-16T06:25:50;8.40;99.90
12833;DHT22;6483;51.310;4.462;2023-04-16T06:28:16;8.40;99.90
12833;DHT22;6483;51.310;4.462;2023-04-16T06:30:42;8.30;99.90
12833;DHT22;6483;51.310;4.462;2023-04-16T06:33:10;8.40;99.90
12833;DHT22;6483;51.310;4.462;2023-04-16T06:35:37;8.40;99.90
12833;DHT22;6483;51.310;4.462;2023-04-16T06:38:02;8.30;99.90
12833;DHT22;6483;51.310;4.462;2023-04-16T06:40:28;8.30;99.90
12833;DHT22;6483;51.310;4.462;2023-04-16T06:42:56;8.40;99.90
12833;DHT22;6483;51.310;4.462;2023-04-16T06:45:23;8.40;99.90
12833;DHT22;6483;51.310;4.462;2023-04-16T06:47:49;8.40;99.90
12833;DHT22;6483;51.310;4.462;2023-04-16T06:50:19;8.40;99.90
12833;DHT22;6483;51.310;4.462;2023-04-16T06:52:49;8.50;99.90
12833;DHT22;6483;51.310;4.462;2023-04-16T06:55:15;8.40;99.90
12833;DHT22;6483;51.310;4.462;2023-04-16T06:57:41;8.40;99.90
12833;DHT22;6483;51.310;4.462;2023-04-16T07:00:08;8.40;99.90
12833;DHT22;6483;51.310;4.462;2023-04-16T07:02:35;8.50;99.90
12833;DHT22;6483;51.310;4.462;2023-04-16T07:05:00;8.40;99.90
12833;DHT22;6483;51.310;4.462;2023-04-16T07:07:26;8.50;99.90
12833;DHT22;6483;51.310;4.462;2023-04-16T07:09:51;8.50;99.90
12833;DHT22;6483;51.310;4.462;2023-04-16T07:12:20;8.50;99.90
12833;DHT22;6483;51.310;4.462;2023-04-16T07:14:46;8.50;99.90
12833;DHT22;6483;51.310;4.462;2023-04-16T07:17:12;8.50;99.90
12833;DHT22;6483;51.310;4.462;2023-04-16T07:19:38;8.50;99.90
12833;DHT22;6483;51.310;4.462;2023-04-16T07:22:06;8.50;99.90
12833;DHT22;6483;51.310;4.462;2023-04-16T07:24:33;8.50;99.90
12833;DHT22;6483;51.310;4.462;2023-04-16T07:26:58;8.50;99.90
12833;DHT22;6483;51.310;4.462;2023-04-16T07:29:24;8.50;99.90
12833;DHT22;6483;51.310;4.462;2023-04-16T07:31:50;8.60;99.90
12833;DHT22;6483;51.310;4.462;2023-04-16T07:34:17;8.60;99.90
12833;DHT22;6483;51.310;4.462;2023-04-16T07:36:43;8.60;99.90
12833;DHT22;6483;51.310;4.462;2023-04-16T07:39:08;8.60;99.90
12833;DHT22;6483;51.310;4.462;2023-04-16T07:41:36;8.70;99.90
12833;DHT22;6483;51.310;4.462;2023-04-16T07:44:02;8.70;99.90
12833;DHT22;6483;51.310;4.462;2023-04-16T07:46:28;8.70;99.90
12833;DHT22;6483;51.310;4.462;2023-04-16T07:48:59;8.70;99.90
12833;DHT22;6483;51.310;4.462;2023-04-16T07:51:25;8.80;99.90
12833;DHT22;6483;51.310;4.462;2023-04-16T07:53:51;8.80;99.90
12833;DHT22;6483;51.310;4.462;2023-04-16T07:56:17;8.90;99.90
12833;DHT22;6483;51.310;4.462;2023-04-16T07:58:45;9.00;99.90
12833;DHT22;6483;51.310;4.462;2023-04-16T08:01:11;9.00;99.90
12833;DHT22;6483;51.310;4.462;2023-04-16T08:03:40;9.00;99.90
12833;DHT22;6483;51.310;4.462;2023-04-16T08:06:06;9.00;99.90
12833;DHT22;6483;51.310;4.462;2023-04-16T08:08:32;9.10;99.90
12833;DHT22;6483;51.310;4.462;2023-04-16T08:10:58;9.10;99.90
12833;DHT22;6483;51.310;4.462;2023-04-16T08:13:27;9.20;99.90
12833;DHT22;6483;51.310;4.462;2023-04-16T08:15:53;9.20;99.90
12833;DHT22;6483;51.310;4.462;2023-04-16T08:18:21;9.20;99.90
12833;DHT22;6483;51.310;4.462;2023-04-16T08:20:50;9.30;99.90
12833;DHT22;6483;51.310;4.462;2023-04-16T08:23:16;9.30;99.90
12833;DHT22;6483;51.310;4.462;2023-04-16T08:25:48;9.20;99.90
12833;DHT22;6483;51.310;4.462;2023-04-16T08:28:13;9.30;99.90
12833;DHT22;6483;51.310;4.462;2023-04-16T08:30:39;9.30;99.90
12833;DHT22;6483;51.310;4.462;2023-04-16T08:33:04;9.40;99.90
12833;DHT22;6483;51.310;4.462;2023-04-16T08:35:30;9.40;99.90
12833;DHT22;6483;51.310;4.462;2023-04-16T08:37:58;9.40;99.90
12833;DHT22;6483;51.310;4.462;2023-04-16T08:40:27;9.40;99.90
12833;DHT22;6483;51.310;4.462;2023-04-16T08:42:55;9.40;99.90
12833;DHT22;6483;51.310;4.462;2023-04-16T08:45:25;9.50;99.90
12833;DHT22;6483;51.310;4.462;2023-04-16T08:47:52;9.50;99.90
12833;DHT22;6483;51.310;4.462;2023-04-16T08:50:23;9.60;99.90
12833;DHT22;6483;51.310;4.462;2023-04-16T08:53:01;9.60;99.90
12833;DHT22;6483;51.310;4.462;2023-04-16T08:55:45;9.70;99.90
12833;DHT22;6483;51.310;4.462;2023-04-16T08:58:18;9.70;99.90
12833;DHT22;6483;51.310;4.462;2023-04-16T09:00:44;9.70;99.90
12833;DHT22;6483;51.310;4.462;2023-04-16T09:03:15;9.80;99.90
12833;DHT22;6483;51.310;4.462;2023-04-16T09:08:07;9.90;99.90
12833;DHT22;6483;51.310;4.462;2023-04-16T09:10:34;10.00;99.90
12833;DHT22;6483;51.310;4.462;2023-04-16T09:13:00;10.10;99.90
12833;DHT22;6483;51.310;4.462;2023-04-16T09:15:26;10.20;99.90
12833;DHT22;6483;51.310;4.462;2023-04-16T09:17:54;10.20;99.90
12833;DHT22;6483;51.310;4.462;2023-04-16T09:20:24;10.30;99.90
12833;DHT22;6483;51.310;4.462;2023-04-16T09:22:51;10.40;99.90
12833;DHT22;6483;51.310;4.462;2023-04-16T09:25:22;10.50;99.90
12833;DHT22;6483;51.310;4.462;2023-04-16T09:27:49;10.40;99.90
12833;DHT22;6483;51.310;4.462;2023-04-16T09:30:26;10.30;99.90
12833;DHT22;6483;51.310;4.462;2023-04-16T09:33:31;10.40;99.90
12833;DHT22;6483;51.310;4.462;2023-04-16T09:35:57;10.40;99.90
12833;DHT22;6483;51.310;4.462;2023-04-16T09:38:22;10.30;99.90
12833;DHT22;6483;51.310;4.462;2023-04-16T09:41:07;10.40;99.90
12833;DHT22;6483;51.310;4.462;2023-04-16T09:43:33;10.40;99.90
12833;DHT22;6483;51.310;4.462;2023-04-16T09:45:59;10.40;99.90
12833;DHT22;6483;51.310;4.462;2023-04-16T09:48:32;10.40;99.90
12833;DHT22;6483;51.310;4.462;2023-04-16T09:50:59;10.20;99.90
12833;DHT22;6483;51.310;4.462;2023-04-16T09:53:29;10.10;99.90
12833;DHT22;6483;51.310;4.462;2023-04-16T09:56:00;10.20;99.90
12833;DHT22;6483;51.310;4.462;2023-04-16T09:58:31;10.30;99.90
12833;DHT22;6483;51.310;4.462;2023-04-16T10:01:16;10.20;99.90
12833;DHT22;6483;51.310;4.462;2023-04-16T10:03:42;10.30;99.90
12833;DHT22;6483;51.310;4.462;2023-04-16T10:06:28;10.30;99.90
12833;DHT22;6483;51.310;4.462;2023-04-16T10:08:54;10.20;99.90
12833;DHT22;6483;51.310;4.462;2023-04-16T10:11:26;10.20;99.90
12833;DHT22;6483;51.310;4.462;2023-04-16T10:13:52;10.30;99.90
12833;DHT22;6483;51.310;4.462;2023-04-16T10:16:21;10.30;99.90
12833;DHT22;6483;51.310;4.462;2023-04-16T10:18:47;10.40;99.90
12833;DHT22;6483;51.310;4.462;2023-04-16T10:21:20;10.40;99.90
12833;DHT22;6483;51.310;4.462;2023-04-16T10:23:49;10.40;99.90
12833;DHT22;6483;51.310;4.462;2023-04-16T10:26:17;10.30;99.90
12833;DHT22;6483;51.310;4.462;2023-04-16T10:28:44;10.30;99.90
12833;DHT22;6483;51.310;4.462;2023-04-16T10:31:10;10.30;99.90
12833;DHT22;6483;51.310;4.462;2023-04-16T10:33:39;10.50;99.90
12833;DHT22;6483;51.310;4.462;2023-04-16T10:38:50;10.30;99.90
12833;DHT22;6483;51.310;4.462;2023-04-16T10:41:19;10.30;99.90
12833;DHT22;6483;51.310;4.462;2023-04-16T10:43:51;10.30;99.90
12833;DHT22;6483;51.310;4.462;2023-04-16T10:49:26;10.50;99.90
12833;DHT22;6483;51.310;4.462;2023-04-16T10:52:06;10.60;99.90
12833;DHT22;6483;51.310;4.462;2023-04-16T10:54:35;10.70;99.90
12833;DHT22;6483;51.310;4.462;2023-04-16T10:57:08;10.50;99.90
12833;DHT22;6483;51.310;4.462;2023-04-16T10:59:41;10.40;99.90
12833;DHT22;6483;51.310;4.462;2023-04-16T11:02:15;10.40;99.90
12833;DHT22;6483;51.310;4.462;2023-04-16T11:04:46;10.50;99.90
12833;DHT22;6483;51.310;4.462;2023-04-16T11:10:05;10.70;99.90
12833;DHT22;6483;51.310;4.462;2023-04-16T11:12:36;10.70;99.90
12833;DHT22;6483;51.310;4.462;2023-04-16T11:15:05;10.60;99.90
12833;DHT22;6483;51.310;4.462;2023-04-16T11:17:48;10.60;99.90
12833;DHT22;6483;51.310;4.462;2023-04-16T11:20:27;10.50;99.90
12833;DHT22;6483;51.310;4.462;2023-04-16T11:22:57;10.60;99.90
12833;DHT22;6483;51.310;4.462;2023-04-16T11:25:24;10.50;99.90
12833;DHT22;6483;51.310;4.462;2023-04-16T11:27:54;10.40;99.90
12833;DHT22;6483;51.310;4.462;2023-04-16T11:30:32;10.50;99.90
12833;DHT22;6483;51.310;4.462;2023-04-16T11:33:07;10.60;99.90
12833;DHT22;6483;51.310;4.462;2023-04-16T11:35:33;10.60;99.90
12833;DHT22;6483;51.310;4.462;2023-04-16T11:37:59;10.60;99.90
12833;DHT22;6483;51.310;4.462;2023-04-16T11:40:32;10.60;99.90
12833;DHT22;6483;51.310;4.462;2023-04-16T11:43:21;10.70;99.90
12833;DHT22;6483;51.310;4.462;2023-04-16T11:46:12;10.70;99.90
12833;DHT22;6483;51.310;4.462;2023-04-16T11:48:52;10.80;99.90
12833;DHT22;6483;51.310;4.462;2023-04-16T11:51:19;11.00;99.90
12833;DHT22;6483;51.310;4.462;2023-04-16T11:53:50;11.10;99.90
12833;DHT22;6483;51.310;4.462;2023-04-16T11:56:44;11.00;99.90
12833;DHT22;6483;51.310;4.462;2023-04-16T11:59:21;10.90;99.90
12833;DHT22;6483;51.310;4.462;2023-04-16T12:02:05;11.00;99.90
12833;DHT22;6483;51.310;4.462;2023-04-16T12:04:32;10.90;99.90
12833;DHT22;6483;51.310;4.462;2023-04-16T12:07:14;10.90;99.90
12833;DHT22;6483;51.310;4.462;2023-04-16T12:09:43;10.90;99.90
12833;DHT22;6483;51.310;4.462;2023-04-16T12:12:30;10.80;99.90
12833;DHT22;6483;51.310;4.462;2023-04-16T12:14:56;10.80;99.90
12833;DHT22;6483;51.310;4.462;2023-04-16T12:17:26;10.90;99.90
12833;DHT22;6483;51.310;4.462;2023-04-16T12:19:56;10.80;99.90
12833;DHT22;6483;51.310;4.462;2023-04-16T12:22:47;10.80;99.90
12833;DHT22;6483;51.310;4.462;2023-04-16T12:25:15;10.80;99.90
12833;DHT22;6483;51.310;4.462;2023-04-16T12:27:54;10.80;99.90
12833;DHT22;6483;51.310;4.462;2023-04-16T12:30:24;11.00;99.90
12833;DHT22;6483;51.310;4.462;2023-04-16T12:32:52;11.20;99.90
12833;DHT22;6483;51.310;4.462;2023-04-16T12:35:34;11.20;99.90
12833;DHT22;6483;51.310;4.462;2023-04-16T12:38:03;11.20;99.90
12833;DHT22;6483;51.310;4.462;2023-04-16T12:40:29;11.10;99.90
12833;DHT22;6483;51.310;4.462;2023-04-16T12:42:55;11.00;99.90
12833;DHT22;6483;51.310;4.462;2023-04-16T12:45:21;11.10;99.90
12833;DHT22;6483;51.310;4.462;2023-04-16T12:47:50;11.00;99.90
12833;DHT22;6483;51.310;4.462;2023-04-16T12:50:17;11.20;99.90
12833;DHT22;6483;51.310;4.462;2023-04-16T12:52:43;11.50;99.90
12833;DHT22;6483;51.310;4.462;2023-04-16T12:55:09;11.60;99.90
12833;DHT22;6483;51.310;4.462;2023-04-16T12:57:35;11.60;99.90
12833;DHT22;6483;51.310;4.462;2023-04-16T13:00:09;12.00;99.90
12833;DHT22;6483;51.310;4.462;2023-04-16T13:02:36;12.20;99.90
12833;DHT22;6483;51.310;4.462;2023-04-16T13:05:03;12.40;99.90
12833;DHT22;6483;51.310;4.462;2023-04-16T13:07:28;12.60;99.90
12833;DHT22;6483;51.310;4.462;2023-04-16T13:09:57;12.80;99.90
12833;DHT22;6483;51.310;4.462;2023-04-16T13:12:22;12.90;99.90
12833;DHT22;6483;51.310;4.462;2023-04-16T13:14:48;12.70;99.90
12833;DHT22;6483;51.310;4.462;2023-04-16T13:17:15;12.50;99.90
12833;DHT22;6483;51.310;4.462;2023-04-16T13:19:41;12.30;99.90
12833;DHT22;6483;51.310;4.462;2023-04-16T13:22:07;12.10;99.90
12833;DHT22;6483;51.310;4.462;2023-04-16T13:24:34;12.10;99.90
12833;DHT22;6483;51.310;4.462;2023-04-16T13:27:00;12.30;99.90
12833;DHT22;6483;51.310;4.462;2023-04-16T13:29:26;12.30;99.90
12833;DHT22;6483;51.310;4.462;2023-04-16T13:31:52;12.40;99.90
12833;DHT22;6483;51.310;4.462;2023-04-16T13:34:21;12.40;99.90
12833;DHT22;6483;51.310;4.462;2023-04-16T13:36:47;12.50;99.90
12833;DHT22;6483;51.310;4.462;2023-04-16T13:39:13;12.50;99.90
12833;DHT22;6483;51.310;4.462;2023-04-16T13:41:42;12.60;99.90
12833;DHT22;6483;51.310;4.462;2023-04-16T13:44:11;12.60;99.90
12833;DHT22;6483;51.310;4.462;2023-04-16T13:46:36;12.60;99.90
12833;DHT22;6483;51.310;4.462;2023-04-16T13:49:02;12.50;99.90
12833;DHT22;6483;51.310;4.462;2023-04-16T13:51:28;12.50;99.90
12833;DHT22;6483;51.310;4.462;2023-04-16T13:53:56;12.60;99.90
12833;DHT22;6483;51.310;4.462;2023-04-16T13:56:23;12.80;99.90
12833;DHT22;6483;51.310;4.462;2023-04-16T13:58:49;12.70;99.90
12833;DHT22;6483;51.310;4.462;2023-04-16T14:01:16;12.80;99.90
12833;DHT22;6483;51.310;4.462;2023-04-16T14:03:42;12.70;99.90
12833;DHT22;6483;51.310;4.462;2023-04-16T14:06:08;12.70;99.90
12833;DHT22;6483;51.310;4.462;2023-04-16T14:08:33;12.80;99.90
12833;DHT22;6483;51.310;4.462;2023-04-16T14:11:00;12.90;66.40
12833;DHT22;6483;51.310;4.462;2023-04-16T14:13:26;12.80;27.20
12833;DHT22;6483;51.310;4.462;2023-04-16T14:15:55;12.80;46.80
12833;DHT22;6483;51.310;4.462;2023-04-16T14:18:20;12.80;29.10
12833;DHT22;6483;51.310;4.462;2023-04-16T14:20:49;12.80;22.90
12833;DHT22;6483;51.310;4.462;2023-04-16T14:23:15;13.00;51.70
12833;DHT22;6483;51.310;4.462;2023-04-16T14:25:44;13.00;27.20
12833;DHT22;6483;51.310;4.462;2023-04-16T14:28:09;13.10;22.00
12833;DHT22;6483;51.310;4.462;2023-04-16T14:30:38;13.00;1.00
12833;DHT22;6483;51.310;4.462;2023-04-16T14:33:04;13.00;1.00
12833;DHT22;6483;51.310;4.462;2023-04-16T14:35:31;13.10;34.00
12833;DHT22;6483;51.310;4.462;2023-04-16T14:37:58;13.40;1.00
12833;DHT22;6483;51.310;4.462;2023-04-16T14:40:24;13.60;1.00
12833;DHT22;6483;51.310;4.462;2023-04-16T14:42:50;13.50;1.00
12833;DHT22;6483;51.310;4.462;2023-04-16T14:45:15;13.30;1.00
12833;DHT22;6483;51.310;4.462;2023-04-16T14:47:41;13.00;1.00
12833;DHT22;6483;51.310;4.462;2023-04-16T14:50:13;12.90;1.00
12833;DHT22;6483;51.310;4.462;2023-04-16T14:52:42;12.90;1.00
12833;DHT22;6483;51.310;4.462;2023-04-16T14:55:08;12.80;9.70
12833;DHT22;6483;51.310;4.462;2023-04-16T14:57:34;12.60;9.10
12833;DHT22;6483;51.310;4.462;2023-04-16T15:00:00;12.50;40.50
12833;DHT22;6483;51.310;4.462;2023-04-16T15:02:27;12.40;96.90
12833;DHT22;6483;51.310;4.462;2023-04-16T15:04:53;12.30;92.80
12833;DHT22;6483;51.310;4.462;2023-04-16T15:07:19;12.20;99.90
12833;DHT22;6483;51.310;4.462;2023-04-16T15:09:53;12.20;99.90
12833;DHT22;6483;51.310;4.462;2023-04-16T15:12:19;12.10;99.90
12833;DHT22;6483;51.310;4.462;2023-04-16T15:14:48;12.10;99.90
12833;DHT22;6483;51.310;4.462;2023-04-16T15:17:14;12.30;99.90
12833;DHT22;6483;51.310;4.462;2023-04-16T15:19:40;12.40;99.90
12833;DHT22;6483;51.310;4.462;2023-04-16T15:22:12;12.50;99.90
12833;DHT22;6483;51.310;4.462;2023-04-16T15:24:39;12.50;99.90
12833;DHT22;6483;51.310;4.462;2023-04-16T15:27:05;12.60;75.00
12833;DHT22;6483;51.310;4.462;2023-04-16T15:29:37;12.60;92.20
12833;DHT22;6483;51.310;4.462;2023-04-16T15:32:06;12.40;82.00
12833;DHT22;6483;51.310;4.462;2023-04-16T15:34:32;12.40;87.50
12833;DHT22;6483;51.310;4.462;2023-04-16T15:36:57;12.40;99.90
12833;DHT22;6483;51.310;4.462;2023-04-16T15:39:26;12.40;72.10
12833;DHT22;6483;51.310;4.462;2023-04-16T15:41:55;12.30;85.90
12833;DHT22;6483;51.310;4.462;2023-04-16T15:44:21;12.30;86.70
12833;DHT22;6483;51.310;4.462;2023-04-16T15:46:47;12.20;99.90
12833;DHT22;6483;51.310;4.462;2023-04-16T15:49:13;12.20;99.90
12833;DHT22;6483;51.310;4.462;2023-04-16T15:51:39;12.20;99.90
12833;DHT22;6483;51.310;4.462;2023-04-16T15:54:05;12.20;99.90
12833;DHT22;6483;51.310;4.462;2023-04-16T15:56:31;12.20;99.90
12833;DHT22;6483;51.310;4.462;2023-04-16T15:58:57;12.30;99.90
12833;DHT22;6483;51.310;4.462;2023-04-16T16:01:23;12.20;74.10
12833;DHT22;6483;51.310;4.462;2023-04-16T16:03:49;12.30;99.90
12833;DHT22;6483;51.310;4.462;2023-04-16T16:06:14;12.30;99.90
12833;DHT22;6483;51.310;4.462;2023-04-16T16:08:42;12.40;99.90
12833;DHT22;6483;51.310;4.462;2023-04-16T16:11:08;12.60;91.90